createdAt,value
2023-02-19T00:01:28.345Z,98948.52
2023-02-19T00:04:07.781Z,98931.27
2023-02-19T00:06:40.484Z,98943.27
2023-02-19T00:09:14.973Z,98947.64
2023-02-19T00:11:48.783Z,98948.42
2023-02-19T00:14:22.464Z,98947.13
2023-02-19T00:16:55.188Z,98949.30
2023-02-19T00:19:29.437Z,98951.88
2023-02-19T00:22:01.929Z,98949.70
2023-02-19T00:24:34.800Z,98945.25
2023-02-19T00:27:08.013Z,98944.34
2023-02-19T00:29:40.809Z,98943.97
2023-02-19T00:32:14.909Z,98946.55
2023-02-19T00:34:47.618Z,98945.25
2023-02-19T00:37:20.344Z,98948.61
2023-02-19T00:39:52.927Z,98952.88
2023-02-19T00:42:26.289Z,98950.20
2023-02-19T00:44:58.919Z,98949.80
2023-02-19T00:47:31.719Z,98951.08
2023-02-19T00:50:05.597Z,98949.80
2023-02-19T00:52:38.586Z,98946.70
2023-02-19T00:55:11.430Z,98941.45
2023-02-19T00:57:44.721Z,98938.87
2023-02-19T01:00:17.689Z,98944.42
2023-02-19T01:02:51.053Z,98942.73
2023-02-19T01:05:24.287Z,98937.58
2023-02-19T01:07:57.668Z,98943.65
2023-02-19T01:10:30.440Z,98944.42
2023-02-19T01:13:03.473Z,98941.08
2023-02-19T01:15:36.640Z,98941.55
2023-02-19T01:18:09.371Z,98940.77
2023-02-19T01:20:43.796Z,98941.66
2023-02-19T01:23:16.947Z,98942.95
2023-02-19T01:25:49.621Z,98947.52
2023-02-19T01:28:23.446Z,98948.80
2023-02-19T01:30:56.255Z,98948.70
2023-02-19T01:33:28.979Z,98955.61
2023-02-19T01:36:03.584Z,98945.31
2023-02-19T01:38:36.498Z,98936.70
2023-02-19T01:41:11.576Z,98933.72
2023-02-19T01:44:07.319Z,98920.84
2023-02-19T01:46:44.596Z,98919.44
2023-02-19T01:49:23.924Z,98928.86
2023-02-19T01:52:09.216Z,98930.92
2023-02-19T01:54:42.456Z,98936.59
2023-02-19T01:57:18.087Z,98936.08
2023-02-19T01:59:55.305Z,98937.00
2023-02-19T02:02:28.651Z,98934.42
2023-02-19T02:05:01.679Z,98928.65
2023-02-19T02:07:52.269Z,98930.34
2023-02-19T02:10:25.273Z,98928.14
2023-02-19T02:12:59.133Z,98932.52
2023-02-19T02:15:38.913Z,98935.87
2023-02-19T02:18:18.020Z,98938.84
2023-02-19T02:21:18.158Z,98933.99
2023-02-19T02:24:02.893Z,98936.56
2023-02-19T02:26:49.563Z,98942.09
2023-02-19T02:29:43.277Z,98941.98
2023-02-19T02:32:21.542Z,98944.56
2023-02-19T02:34:59.561Z,98949.60
2023-02-19T02:37:33.958Z,98951.41
2023-02-19T02:40:07.460Z,98945.84
2023-02-19T02:42:43.713Z,98950.22
2023-02-19T02:45:35.869Z,98959.05
2023-02-19T02:48:22.733Z,98964.20
2023-02-19T02:51:04.419Z,98973.51
2023-02-19T02:54:02.339Z,98974.80
2023-02-19T02:56:36.766Z,98980.36
2023-02-19T02:59:11.270Z,98972.22
2023-02-19T03:02:07.558Z,98970.94
2023-02-19T03:05:16.824Z,98967.69
2023-02-19T03:07:59.573Z,98965.22
2023-02-19T03:10:37.787Z,98948.08
2023-02-19T03:13:31.387Z,98951.53
2023-02-19T03:16:25.778Z,98952.72
2023-02-19T03:19:16.475Z,98965.59
2023-02-19T03:21:55.276Z,98968.58
2023-02-19T03:24:51.154Z,98957.66
2023-02-19T03:27:25.143Z,98963.20
2023-02-19T03:30:00.166Z,98966.56
2023-02-19T03:32:40.305Z,98967.84
2023-02-19T03:35:16.793Z,98971.71
2023-02-19T03:38:05.383Z,98977.78
2023-02-19T03:40:58.621Z,98978.96
2023-02-19T03:43:40.623Z,98977.38
2023-02-19T03:46:23.407Z,98980.73
2023-02-19T03:48:59.557Z,98976.09
2023-02-19T03:51:41.438Z,98975.69
2023-02-19T03:54:50.527Z,98979.28
2023-02-19T03:57:27.170Z,98984.03
2023-02-19T04:00:24.509Z,98984.44
2023-02-19T04:03:30.802Z,98982.23
2023-02-19T04:06:05.526Z,98985.72
2023-02-19T04:08:38.663Z,98991.46
2023-02-19T04:11:11.817Z,98991.97
2023-02-19T04:14:05.241Z,98993.88
2023-02-19T04:16:40.140Z,98999.92
2023-02-19T04:19:14.818Z,99010.33
2023-02-19T04:21:47.723Z,99008.27
2023-02-19T04:24:32.843Z,99018.94
2023-02-19T04:27:05.836Z,99019.05
2023-02-19T04:29:39.408Z,99026.30
2023-02-19T04:32:13.310Z,99029.36
2023-02-19T04:34:46.076Z,99029.66
2023-02-19T04:37:18.886Z,99026.08
2023-02-19T04:39:51.430Z,99032.52
2023-02-19T04:42:25.007Z,99031.61
2023-02-19T04:44:57.762Z,99032.12
2023-02-19T04:47:30.317Z,99036.09
2023-02-19T04:50:02.951Z,99041.75
2023-02-19T04:52:36.528Z,99048.31
2023-02-19T04:55:09.965Z,99045.73
2023-02-19T04:57:42.552Z,99050.19
2023-02-19T05:00:15.460Z,99053.16
2023-02-19T05:02:48.137Z,99054.45
2023-02-19T05:05:20.868Z,99062.40
2023-02-19T05:07:54.497Z,99059.82
2023-02-19T05:10:27.613Z,99056.44
2023-02-19T05:13:00.366Z,99060.52
2023-02-19T05:15:33.558Z,99059.45
2023-02-19T05:18:06.345Z,99068.58
2023-02-19T05:20:39.428Z,99069.20
2023-02-19T05:23:12.436Z,99071.00
2023-02-19T05:25:45.694Z,99067.83
2023-02-19T05:28:18.979Z,99067.64
2023-02-19T05:30:53.100Z,99057.95
2023-02-19T05:33:27.049Z,99054.59
2023-02-19T05:36:00.946Z,99054.97
2023-02-19T05:38:33.955Z,99053.58
2023-02-19T05:41:13.063Z,99054.86
2023-02-19T05:43:47.572Z,99049.70
2023-02-19T05:46:22.541Z,99046.25
2023-02-19T05:48:55.687Z,99043.16
2023-02-19T05:51:28.532Z,99045.25
2023-02-19T05:54:01.091Z,99042.57
2023-02-19T05:56:39.197Z,99041.28
2023-02-19T05:59:20.385Z,99046.91
2023-02-19T06:01:54.241Z,99044.74
2023-02-19T06:04:27.351Z,99044.45
2023-02-19T06:07:00.640Z,99046.65
2023-02-19T06:09:33.712Z,99041.97
2023-02-19T06:12:08.240Z,99048.63
2023-02-19T06:14:41.131Z,99041.01
2023-02-19T06:17:13.846Z,99046.89
2023-02-19T06:19:47.468Z,99047.51
2023-02-19T06:22:20.146Z,99048.09
2023-02-19T06:24:53.425Z,99047.42
2023-02-19T06:27:26.663Z,99050.41
2023-02-19T06:30:00.124Z,99051.70
2023-02-19T06:32:33.278Z,99053.16
2023-02-19T06:35:06.377Z,99054.88
2023-02-19T06:37:40.028Z,99055.41
2023-02-19T06:40:12.809Z,99051.87
2023-02-19T06:42:45.962Z,99052.59
2023-02-19T06:45:18.766Z,99056.79
2023-02-19T06:47:53.491Z,99054.83
2023-02-19T06:50:26.143Z,99058.03
2023-02-19T06:52:59.262Z,99057.92
2023-02-19T06:55:32.067Z,99059.73
2023-02-19T06:58:05.338Z,99058.53
2023-02-19T07:00:39.899Z,99059.76
2023-02-19T07:03:13.355Z,99056.77
2023-02-19T07:05:46.767Z,99069.77
2023-02-19T07:08:20.210Z,99061.64
2023-02-19T07:10:58.067Z,99058.27
2023-02-19T07:13:30.849Z,99059.54
2023-02-19T07:16:08.015Z,99069.95
2023-02-19T07:18:42.173Z,99074.54
2023-02-19T07:21:16.479Z,99066.98
2023-02-19T07:23:49.718Z,99067.55
2023-02-19T07:26:23.184Z,99070.06
2023-02-19T07:28:56.024Z,99070.92
2023-02-19T07:31:29.346Z,99071.81
2023-02-19T07:34:02.465Z,99068.42
2023-02-19T07:36:35.115Z,99065.42
2023-02-19T07:39:10.017Z,99074.16
2023-02-19T07:41:42.821Z,99072.38
2023-02-19T07:44:17.365Z,99081.39
2023-02-19T07:46:50.107Z,99078.41
2023-02-19T07:49:24.671Z,99075.88
2023-02-19T07:51:57.504Z,99077.14
2023-02-19T07:54:31.292Z,99078.81
2023-02-19T07:57:04.051Z,99079.59
2023-02-19T07:59:36.847Z,99084.45
2023-02-19T08:02:38.386Z,99078.40
2023-02-19T08:05:11.149Z,99068.33
2023-02-19T08:07:43.818Z,99074.61
2023-02-19T08:10:34.489Z,99077.02
2023-02-19T08:13:20.533Z,99070.95
2023-02-19T08:16:16.963Z,99080.11
2023-02-19T08:18:40.802Z,99066.25
2023-02-19T08:21:13.963Z,99072.68
2023-02-19T08:23:47.949Z,99064.59
2023-02-19T08:26:21.769Z,99071.89
2023-02-19T08:28:54.789Z,99068.98
2023-02-19T08:31:27.935Z,99074.95
2023-02-19T08:34:00.839Z,99072.03
2023-02-19T08:36:34.025Z,99077.03
2023-02-19T08:39:07.012Z,99080.49
2023-02-19T08:41:40.120Z,99087.66
2023-02-19T08:44:12.854Z,99084.23
2023-02-19T08:46:45.581Z,99080.34
2023-02-19T08:49:18.433Z,99076.88
2023-02-19T08:51:51.012Z,99081.13
2023-02-19T08:54:23.753Z,99076.80
2023-02-19T08:56:56.660Z,99076.57
2023-02-19T08:59:31.101Z,99078.31
2023-02-19T09:02:03.848Z,99067.23
2023-02-19T09:04:38.003Z,99065.53
2023-02-19T09:07:11.281Z,99061.73
2023-02-19T09:09:45.038Z,99060.44
2023-02-19T09:12:17.769Z,99055.17
2023-02-19T09:14:52.065Z,99056.99
2023-02-19T09:17:24.733Z,99049.96
2023-02-19T09:19:57.339Z,99055.94
2023-02-19T09:22:30.401Z,99060.61
2023-02-19T09:25:03.449Z,99055.05
2023-02-19T09:27:36.850Z,99059.58
2023-02-19T09:30:10.368Z,99065.50
2023-02-19T09:32:43.232Z,99057.81
2023-02-19T09:35:16.298Z,99065.59
2023-02-19T09:37:49.241Z,99054.14
2023-02-19T09:40:22.650Z,99053.67
2023-02-19T09:42:57.291Z,99048.95
2023-02-19T09:45:30.505Z,99052.05
2023-02-19T09:48:04.705Z,99048.43
2023-02-19T09:50:44.827Z,99046.69
2023-02-19T09:53:23.028Z,99053.19
2023-02-19T09:55:55.566Z,99049.48
2023-02-19T09:58:34.107Z,99055.63
2023-02-19T10:01:08.095Z,99043.47
2023-02-19T10:03:43.593Z,99046.06
2023-02-19T10:06:27.147Z,99042.09
2023-02-19T10:09:23.930Z,99046.89
2023-02-19T10:11:57.498Z,99038.61
2023-02-19T10:14:39.720Z,99031.96
2023-02-19T10:17:15.536Z,99035.58
2023-02-19T10:19:48.346Z,99035.73
2023-02-19T10:22:21.214Z,99049.66
2023-02-19T10:24:56.519Z,99045.95
2023-02-19T10:27:31.377Z,99045.80
2023-02-19T10:30:04.532Z,99039.20
2023-02-19T10:32:37.903Z,99042.67
2023-02-19T10:35:15.149Z,99045.85
2023-02-19T10:37:51.681Z,99042.14
2023-02-19T10:40:26.911Z,99046.41
2023-02-19T10:43:02.714Z,99038.88
2023-02-19T10:45:40.545Z,99038.38
2023-02-19T10:48:34.808Z,99030.34
2023-02-19T10:51:10.968Z,99033.32
2023-02-19T10:53:51.779Z,99039.95
2023-02-19T10:56:26.328Z,99039.39
2023-02-19T10:59:20.519Z,99044.03
2023-02-19T11:02:00.135Z,99045.18
2023-02-19T11:04:35.786Z,99043.78
2023-02-19T11:07:11.870Z,99047.27
2023-02-19T11:09:48.627Z,99047.02
2023-02-19T11:12:33.732Z,99041.84
2023-02-19T11:15:33.797Z,99040.25
2023-02-19T11:18:15.147Z,99040.16
2023-02-19T11:20:55.092Z,99027.83
2023-02-19T11:23:32.988Z,99034.55
2023-02-19T11:26:07.529Z,99028.86
2023-02-19T11:28:43.360Z,99029.91
2023-02-19T11:31:27.989Z,99029.64
2023-02-19T11:34:20.092Z,99021.44
2023-02-19T11:37:10.774Z,99030.73
2023-02-19T11:39:45.005Z,99027.52
2023-02-19T11:42:29.193Z,99034.06
2023-02-19T11:45:13.005Z,99030.33
2023-02-19T11:48:16.932Z,99033.44
2023-02-19T11:51:27.654Z,99030.35
2023-02-19T11:54:15.428Z,99037.66
2023-02-19T11:56:52.349Z,99037.23
2023-02-19T11:59:43.439Z,99027.47
2023-02-19T12:02:23.826Z,99032.41
2023-02-19T12:05:05.780Z,99037.86
2023-02-19T12:07:47.308Z,99046.08
2023-02-19T12:10:35.182Z,99047.48
2023-02-19T12:13:36.638Z,99055.04
2023-02-19T12:16:28.663Z,99051.47
2023-02-19T12:19:10.639Z,99049.06
2023-02-19T12:21:52.265Z,99051.25
2023-02-19T12:24:55.863Z,99053.48
2023-02-19T12:27:57.145Z,99052.52
2023-02-19T12:31:00.113Z,99048.13
2023-02-19T12:33:50.523Z,99058.17
2023-02-19T12:36:29.196Z,99064.36
2023-02-19T12:39:22.938Z,99067.25
2023-02-19T12:42:07.799Z,99070.51
2023-02-19T12:44:47.056Z,99079.33
2023-02-19T12:47:22.983Z,99073.56
2023-02-19T12:50:01.549Z,99076.98
2023-02-19T12:52:36.846Z,99071.63
2023-02-19T12:55:23.754Z,99061.88
2023-02-19T12:57:57.023Z,99053.22
2023-02-19T13:00:32.915Z,99066.02
2023-02-19T13:03:16.838Z,99069.23
2023-02-19T13:06:25.650Z,99074.98
2023-02-19T13:09:18.534Z,99080.20
2023-02-19T13:11:55.345Z,99078.18
2023-02-19T13:14:33.811Z,99072.83
2023-02-19T13:17:09.736Z,99079.13
2023-02-19T13:19:43.623Z,99081.05
2023-02-19T13:22:49.820Z,99086.97
2023-02-19T13:25:23.743Z,99093.27
2023-02-19T13:27:59.965Z,99099.48
2023-02-19T13:30:41.663Z,99110.26
2023-02-19T13:33:35.825Z,99104.22
2023-02-19T13:36:13.814Z,99091.79
2023-02-19T13:38:47.639Z,99086.42
2023-02-19T13:41:32.407Z,99083.60
2023-02-19T13:44:08.379Z,99077.50
2023-02-19T13:46:43.393Z,99075.74
2023-02-19T13:49:34.993Z,99078.71
2023-02-19T13:52:33.930Z,99071.35
2023-02-19T13:55:49.904Z,99074.27
2023-02-19T13:58:55.051Z,99072.06
2023-02-19T14:01:53.469Z,99065.22
2023-02-19T14:04:35.249Z,99069.66
2023-02-19T14:07:11.247Z,99080.81
2023-02-19T14:09:46.689Z,99087.84
2023-02-19T14:12:21.114Z,99085.27
2023-02-19T14:14:54.449Z,99083.92
2023-02-19T14:17:45.924Z,99076.61
2023-02-19T14:20:38.146Z,99077.53
2023-02-19T14:23:19.091Z,99087.42
2023-02-19T14:26:01.256Z,99088.34
2023-02-19T14:28:42.556Z,99093.23
2023-02-19T14:31:24.175Z,99088.56
2023-02-19T14:33:59.645Z,99085.22
2023-02-19T14:36:49.601Z,99085.94
2023-02-19T14:39:27.256Z,99092.34
2023-02-19T14:42:03.096Z,99095.84
2023-02-19T14:44:54.407Z,99088.98
2023-02-19T14:47:28.089Z,99085.51
2023-02-19T14:50:04.182Z,99098.64
2023-02-19T14:52:43.060Z,99107.03
2023-02-19T14:55:28.452Z,99095.78
2023-02-19T14:58:03.604Z,99090.63
2023-02-19T15:00:38.518Z,99086.87
2023-02-19T15:03:33.585Z,99083.39
2023-02-19T15:06:17.653Z,99082.00
2023-02-19T15:08:52.779Z,99089.14
2023-02-19T15:11:27.467Z,99084.79
2023-02-19T15:14:06.505Z,99084.69
2023-02-19T15:16:39.312Z,99088.73
2023-02-19T15:19:13.364Z,99094.02
2023-02-19T15:21:48.078Z,99095.20
2023-02-19T15:24:20.937Z,99092.05
2023-02-19T15:26:54.417Z,99081.42
2023-02-19T15:29:28.902Z,99085.87
2023-02-19T15:32:02.751Z,99085.27
2023-02-19T15:34:36.078Z,99082.78
2023-02-19T15:37:10.239Z,99085.47
2023-02-19T15:39:46.594Z,99093.42
2023-02-19T15:42:25.827Z,99086.36
2023-02-19T15:45:24.979Z,99081.60
2023-02-19T15:48:00.812Z,99081.50
2023-02-19T15:50:39.636Z,99078.52
2023-02-19T15:53:19.972Z,99082.79
2023-02-19T15:56:10.935Z,99086.94
2023-02-19T15:59:07.216Z,99087.23
2023-02-19T16:01:40.694Z,99097.88
2023-02-19T16:04:18.760Z,99099.16
2023-02-19T16:07:00.107Z,99112.23
2023-02-19T16:09:39.719Z,99109.34
2023-02-19T16:12:23.476Z,99117.80
2023-02-19T16:14:56.701Z,99104.17
2023-02-19T16:17:29.718Z,99119.45
2023-02-19T16:20:03.495Z,99116.66
2023-02-19T16:22:40.522Z,99124.59
2023-02-19T16:25:31.565Z,99121.50
2023-02-19T16:28:15.471Z,99123.61
2023-02-19T16:30:50.184Z,99134.19
2023-02-19T16:33:44.687Z,99142.23
2023-02-19T16:36:40.427Z,99136.56
2023-02-19T16:39:18.370Z,99138.66
2023-02-19T16:41:54.405Z,99137.75
2023-02-19T16:44:33.481Z,99131.30
2023-02-19T16:47:08.083Z,99127.05
2023-02-19T16:49:42.714Z,99123.55
2023-02-19T16:52:17.242Z,99130.81
2023-02-19T16:54:50.064Z,99131.70
2023-02-19T16:57:22.919Z,99139.63
2023-02-19T16:59:55.755Z,99138.54
2023-02-19T17:02:28.463Z,99130.95
2023-02-19T17:05:01.176Z,99135.64
2023-02-19T17:07:34.244Z,99140.59
2023-02-19T17:10:07.231Z,99142.14
2023-02-19T17:12:41.562Z,99144.13
2023-02-19T17:15:14.485Z,99141.82
2023-02-19T17:17:47.218Z,99148.20
2023-02-19T17:20:28.235Z,99148.20
2023-02-19T17:23:00.978Z,99154.64
2023-02-19T17:25:33.763Z,99154.64
2023-02-19T17:28:07.225Z,99157.22
2023-02-19T17:30:40.554Z,99156.70
2023-02-19T17:33:13.476Z,99152.84
2023-02-19T17:35:46.233Z,99152.73
2023-02-19T17:38:19.748Z,99149.16
2023-02-19T17:40:53.352Z,99162.16
2023-02-19T17:43:26.487Z,99159.36
2023-02-19T17:45:59.164Z,99163.50
2023-02-19T17:48:32.215Z,99165.08
2023-02-19T17:51:05.711Z,99166.38
2023-02-19T17:53:38.743Z,99166.38
2023-02-19T17:56:12.660Z,99162.91
2023-02-19T17:58:45.495Z,99167.25
2023-02-19T18:01:18.495Z,99165.08
2023-02-19T18:03:51.267Z,99171.94
2023-02-19T18:06:23.905Z,99171.13
2023-02-19T18:08:56.884Z,99172.71
2023-02-19T18:11:29.674Z,99174.77
2023-02-19T18:14:03.001Z,99180.34
2023-02-19T18:16:35.696Z,99177.65
2023-02-19T18:19:08.940Z,99178.16
2023-02-19T18:21:41.977Z,99177.25
2023-02-19T18:24:14.915Z,99186.37
2023-02-19T18:26:47.737Z,99186.00
2023-02-19T18:29:22.109Z,99185.60
2023-02-19T18:31:54.863Z,99187.67
2023-02-19T18:34:28.348Z,99181.62
2023-02-19T18:37:01.200Z,99179.82
2023-02-19T18:39:34.614Z,99175.59
2023-02-19T18:42:08.205Z,99177.65
2023-02-19T18:44:41.728Z,99173.78
2023-02-19T18:47:14.532Z,99176.25
2023-02-19T18:49:53.134Z,99177.83
2023-02-19T18:52:27.111Z,99171.65
2023-02-19T18:55:00.745Z,99169.98
2023-02-19T18:57:33.950Z,99173.05
2023-02-19T19:00:08.373Z,99168.81
2023-02-19T19:02:49.214Z,99165.83
2023-02-19T19:05:18.340Z,99163.66
2023-02-19T19:07:54.257Z,99165.05
2023-02-19T19:10:27.897Z,99160.27
2023-02-19T19:13:02.117Z,99157.58
2023-02-19T19:15:35.294Z,99160.56
2023-02-19T19:18:09.464Z,99158.88
2023-02-19T19:20:42.146Z,99152.05
2023-02-19T19:23:14.844Z,99154.33
2023-02-19T19:25:47.680Z,99149.17
2023-02-19T19:28:20.385Z,99161.55
2023-02-19T19:30:53.357Z,99154.73
2023-02-19T19:33:28.136Z,99151.35
2023-02-19T19:36:01.122Z,99153.16
2023-02-19T19:38:35.069Z,99148.51
2023-02-19T19:41:08.281Z,99146.30
2023-02-19T19:43:41.718Z,99152.48
2023-02-19T19:46:16.448Z,99151.30
2023-02-19T19:48:50.220Z,99155.17
2023-02-19T19:51:23.474Z,99152.59
2023-02-19T19:53:56.161Z,99151.01
2023-02-19T19:56:29.140Z,99149.31
2023-02-19T19:59:01.853Z,99152.92
2023-02-19T20:01:34.768Z,99159.69
2023-02-19T20:04:07.825Z,99160.28
2023-02-19T20:06:40.689Z,99163.84
2023-02-19T20:09:14.844Z,99162.56
2023-02-19T20:11:49.371Z,99165.84
2023-02-19T20:14:23.636Z,99165.73
2023-02-19T20:16:56.650Z,99158.66
2023-02-19T20:19:29.498Z,99155.71
2023-02-19T20:22:02.143Z,99155.50
2023-02-19T20:24:34.812Z,99160.14
2023-02-19T20:27:07.556Z,99159.52
2023-02-19T20:29:40.932Z,99163.39
2023-02-19T20:32:14.511Z,99155.95
2023-02-19T20:34:48.198Z,99153.38
2023-02-19T20:37:21.429Z,99150.28
2023-02-19T20:39:54.132Z,99145.53
2023-02-19T20:42:27.401Z,99139.97
2023-02-19T20:45:00.300Z,99145.42
2023-02-19T20:47:33.428Z,99137.69
2023-02-19T20:50:08.368Z,99143.25
2023-02-19T20:52:42.129Z,99137.98
2023-02-19T20:55:14.820Z,99138.09
2023-02-19T20:57:47.684Z,99136.39
2023-02-19T21:00:21.832Z,99142.84
2023-02-19T21:02:55.122Z,99142.33
2023-02-19T21:05:27.850Z,99144.42
2023-02-19T21:08:00.684Z,99147.11
2023-02-19T21:10:34.712Z,99139.64
2023-02-19T21:13:09.195Z,99140.56
2023-02-19T21:15:41.857Z,99144.69
2023-02-19T21:18:14.652Z,99140.71
2023-02-19T21:20:47.411Z,99151.94
2023-02-19T21:23:20.421Z,99149.25
2023-02-19T21:25:54.623Z,99157.66
2023-02-19T21:28:27.417Z,99156.15
2023-02-19T21:31:00.766Z,99156.84
2023-02-19T21:33:33.695Z,99168.93
2023-02-19T21:36:07.629Z,99168.93
2023-02-19T21:38:40.365Z,99163.30
2023-02-19T21:41:13.079Z,99157.63
2023-02-19T21:43:46.727Z,99160.49
2023-02-19T21:46:19.877Z,99150.74
2023-02-19T21:48:53.364Z,99152.32
2023-02-19T21:51:31.883Z,99153.17
2023-02-19T21:54:05.404Z,99145.73
2023-02-19T21:56:38.252Z,99156.30
2023-02-19T21:59:11.261Z,99152.22
2023-02-19T22:01:43.979Z,99144.27
2023-02-19T22:04:18.272Z,99155.37
2023-02-19T22:06:53.665Z,99149.82
2023-02-19T22:09:26.974Z,99151.52
2023-02-19T22:11:59.862Z,99146.47
2023-02-19T22:14:32.832Z,99147.87
2023-02-19T22:17:05.604Z,99150.92
2023-02-19T22:19:38.249Z,99150.04
2023-02-19T22:22:11.144Z,99151.33
2023-02-19T22:24:44.692Z,99149.27
2023-02-19T22:27:17.610Z,99150.04
2023-02-19T22:29:50.668Z,99150.45
2023-02-19T22:32:23.588Z,99147.91
2023-02-19T22:34:56.559Z,99147.50
2023-02-19T22:37:30.222Z,99148.45
2023-02-19T22:40:02.865Z,99150.00
2023-02-19T22:42:36.468Z,99150.47
2023-02-19T22:45:11.304Z,99157.85
2023-02-19T22:47:47.209Z,99157.63
2023-02-19T22:50:22.689Z,99160.38
2023-02-19T22:52:56.462Z,99156.41
2023-02-19T22:55:29.432Z,99157.17
2023-02-19T22:58:02.681Z,99154.89
2023-02-19T23:00:36.402Z,99154.15
2023-02-19T23:03:09.693Z,99152.12
2023-02-19T23:05:43.158Z,99155.75
2023-02-19T23:08:16.455Z,99160.02
2023-02-19T23:10:50.403Z,99159.42
2023-02-19T23:13:24.071Z,99157.50
2023-02-19T23:15:57.469Z,99158.39
2023-02-19T23:18:30.173Z,99164.17
2023-02-19T23:21:03.555Z,99159.73
2023-02-19T23:23:36.370Z,99160.77
2023-02-19T23:26:09.296Z,99165.51
2023-02-19T23:28:43.523Z,99154.80
2023-02-19T23:31:17.015Z,99157.90
2023-02-19T23:33:49.734Z,99158.41
2023-02-19T23:36:24.179Z,99155.95
2023-02-19T23:38:56.882Z,99160.16
2023-02-19T23:41:29.546Z,99158.17
2023-02-19T23:44:02.254Z,99155.34
2023-02-19T23:46:35.188Z,99149.50
2023-02-19T23:49:08.434Z,99154.25
2023-02-19T23:51:41.390Z,99151.02
2023-02-19T23:54:14.165Z,99154.58
2023-02-19T23:56:46.948Z,99156.50
2023-02-19T23:59:19.937Z,99149.66
